createdAt,value
2023-02-02T00:01:52.458Z,7.90
2023-02-02T00:04:25.689Z,7.70
2023-02-02T00:06:54.520Z,7.30
2023-02-02T00:09:23.347Z,6.80
2023-02-02T00:11:51.791Z,7.90
2023-02-02T00:14:20.486Z,8.50
2023-02-02T00:16:50.415Z,8.10
2023-02-02T00:19:21.614Z,7.80
2023-02-02T00:21:50.037Z,8.30
2023-02-02T00:24:19.261Z,9.10
2023-02-02T00:26:50.036Z,8.30
2023-02-02T00:29:21.107Z,8.20
2023-02-02T00:31:49.815Z,8.80
2023-02-02T00:34:19.409Z,8.20
2023-02-02T00:36:48.931Z,7.00
2023-02-02T00:39:22.898Z,7.50
2023-02-02T00:41:51.588Z,7.60
2023-02-02T00:44:41.684Z,7.30
2023-02-02T00:47:10.316Z,8.30
2023-02-02T00:49:38.813Z,7.80
2023-02-02T00:52:07.852Z,7.80
2023-02-02T00:54:38.075Z,8.00
2023-02-02T00:57:06.847Z,6.80
2023-02-02T00:59:35.845Z,6.60
2023-02-02T01:02:04.360Z,8.00
2023-02-02T01:04:33.707Z,6.20
2023-02-02T01:07:02.105Z,7.30
2023-02-02T01:09:32.900Z,7.50
2023-02-02T01:12:06.340Z,7.40
2023-02-02T01:14:36.705Z,9.30
2023-02-02T01:17:05.706Z,8.80
2023-02-02T01:19:34.187Z,9.20
2023-02-02T01:22:03.599Z,9.40
2023-02-02T01:24:32.427Z,9.90
2023-02-02T01:27:01.907Z,11.00
2023-02-02T01:29:31.028Z,10.00
2023-02-02T01:31:59.668Z,10.20
2023-02-02T01:34:28.321Z,8.80
2023-02-02T01:36:56.921Z,9.90
2023-02-02T01:39:25.674Z,11.00
2023-02-02T01:41:54.672Z,8.80
2023-02-02T01:45:00.879Z,7.70
2023-02-02T01:47:37.421Z,9.70
2023-02-02T01:50:06.500Z,9.70
2023-02-02T01:52:36.001Z,10.00
2023-02-02T01:55:08.710Z,8.20
2023-02-02T01:57:41.214Z,10.20
2023-02-02T02:00:12.075Z,10.50
2023-02-02T02:02:48.468Z,10.50
2023-02-02T02:05:33.819Z,8.80
2023-02-02T02:08:13.890Z,8.80
2023-02-02T02:10:42.371Z,8.40
2023-02-02T02:13:11.264Z,8.40
2023-02-02T02:16:18.641Z,9.10
2023-02-02T02:19:14.853Z,9.10
2023-02-02T02:22:08.368Z,8.50
2023-02-02T02:25:25.936Z,10.10
2023-02-02T02:28:19.765Z,8.40
2023-02-02T02:30:57.473Z,8.40
2023-02-02T02:33:43.154Z,8.20
2023-02-02T02:36:20.468Z,8.80
2023-02-02T02:39:12.896Z,9.90
2023-02-02T02:41:46.938Z,8.40
2023-02-02T02:44:16.502Z,8.40
2023-02-02T02:46:45.010Z,9.40
2023-02-02T02:49:13.670Z,10.60
2023-02-02T02:51:49.233Z,11.20
2023-02-02T02:54:41.091Z,12.80
2023-02-02T02:57:25.328Z,11.50
2023-02-02T03:00:18.793Z,15.20
2023-02-02T03:03:00.039Z,11.60
2023-02-02T03:05:43.639Z,14.60
2023-02-02T03:08:14.104Z,14.90
2023-02-02T03:10:43.673Z,23.70
2023-02-02T03:13:12.776Z,15.50
2023-02-02T03:15:42.636Z,23.50
2023-02-02T03:18:14.579Z,22.30
2023-02-02T03:20:43.681Z,15.40
2023-02-02T03:23:12.578Z,14.00
2023-02-02T03:25:40.914Z,12.10
2023-02-02T03:28:09.731Z,13.00
2023-02-02T03:30:39.086Z,13.70
2023-02-02T03:33:07.621Z,16.50
2023-02-02T03:35:36.653Z,19.00
2023-02-02T03:38:05.604Z,12.80
2023-02-02T03:40:34.261Z,15.20
2023-02-02T03:43:03.387Z,16.50
2023-02-02T03:45:32.431Z,18.30
2023-02-02T03:48:01.066Z,14.70
2023-02-02T03:50:29.545Z,13.10
2023-02-02T03:52:58.129Z,13.90
2023-02-02T03:55:26.797Z,12.00
2023-02-02T03:57:55.313Z,13.60
2023-02-02T04:00:23.786Z,13.10
2023-02-02T04:02:52.184Z,13.70
2023-02-02T04:05:20.657Z,14.20
2023-02-02T04:07:49.592Z,13.90
2023-02-02T04:10:18.777Z,12.00
2023-02-02T04:12:47.620Z,13.90
2023-02-02T04:15:16.766Z,12.70
2023-02-02T04:17:45.299Z,13.60
2023-02-02T04:20:14.059Z,15.20
2023-02-02T04:22:42.583Z,11.90
2023-02-02T04:25:11.261Z,12.40
2023-02-02T04:27:40.041Z,10.90
2023-02-02T04:30:09.517Z,13.30
2023-02-02T04:32:38.031Z,12.00
2023-02-02T04:35:07.146Z,13.20
2023-02-02T04:37:35.519Z,12.30
2023-02-02T04:40:04.912Z,12.00
2023-02-02T04:42:34.718Z,191.00
2023-02-02T04:45:03.514Z,497.60
2023-02-02T04:47:31.990Z,183.70
2023-02-02T04:50:00.551Z,80.20
2023-02-02T04:52:29.573Z,117.90
2023-02-02T04:54:59.172Z,30.60
2023-02-02T04:57:27.766Z,54.50
2023-02-02T04:59:56.831Z,21.80
2023-02-02T05:02:25.437Z,15.50
2023-02-02T05:04:53.916Z,20.80
2023-02-02T05:07:22.399Z,24.00
2023-02-02T05:09:51.739Z,22.90
2023-02-02T05:14:53.189Z,21.40
2023-02-02T05:17:21.649Z,25.40
2023-02-02T05:19:50.216Z,20.00
2023-02-02T05:22:18.817Z,24.70
2023-02-02T05:24:47.605Z,32.00
2023-02-02T05:27:16.187Z,25.60
2023-02-02T05:29:44.675Z,27.10
2023-02-02T05:32:13.070Z,24.20
2023-02-02T05:34:43.186Z,18.70
2023-02-02T05:37:11.649Z,15.20
2023-02-02T05:39:40.858Z,13.80
2023-02-02T05:42:09.693Z,15.30
2023-02-02T05:44:39.798Z,22.60
2023-02-02T05:47:09.523Z,16.50
2023-02-02T05:49:37.817Z,19.50
2023-02-02T05:52:06.542Z,15.60
2023-02-02T05:54:35.322Z,23.90
2023-02-02T05:57:03.902Z,19.90
2023-02-02T05:59:34.741Z,14.10
2023-02-02T06:02:03.144Z,12.40
2023-02-02T06:04:31.600Z,11.90
2023-02-02T06:07:00.403Z,12.30
2023-02-02T06:09:29.175Z,11.90
2023-02-02T06:11:57.755Z,12.90
2023-02-02T06:14:26.653Z,17.80
2023-02-02T06:16:55.233Z,13.10
2023-02-02T06:19:23.860Z,16.90
2023-02-02T06:21:52.350Z,15.10
2023-02-02T06:24:21.400Z,13.70
2023-02-02T06:26:50.239Z,11.30
2023-02-02T06:29:18.895Z,13.30
2023-02-02T06:31:47.645Z,12.00
2023-02-02T06:34:16.337Z,12.80
2023-02-02T06:36:45.139Z,11.50
2023-02-02T06:39:13.716Z,12.50
2023-02-02T06:41:42.335Z,13.60
2023-02-02T06:44:11.090Z,11.70
2023-02-02T06:46:39.733Z,11.40
2023-02-02T06:49:08.732Z,11.50
2023-02-02T06:51:37.187Z,13.20
2023-02-02T06:54:05.742Z,12.10
2023-02-02T06:56:35.141Z,13.40
2023-02-02T06:59:03.740Z,12.30
2023-02-02T07:01:32.824Z,11.90
2023-02-02T07:04:01.542Z,12.50
2023-02-02T07:06:30.399Z,13.90
2023-02-02T07:09:02.918Z,13.50
2023-02-02T07:11:34.762Z,11.00
2023-02-02T07:14:07.379Z,11.50
2023-02-02T07:16:36.189Z,12.60
2023-02-02T07:19:04.808Z,15.00
2023-02-02T07:21:36.562Z,12.50
2023-02-02T07:24:06.043Z,12.20
2023-02-02T07:26:36.169Z,11.70
2023-02-02T07:29:04.794Z,12.40
2023-02-02T07:31:36.779Z,10.40
2023-02-02T07:34:05.838Z,11.60
2023-02-02T07:36:34.185Z,10.90
2023-02-02T07:39:05.094Z,11.00
2023-02-02T07:41:36.690Z,11.80
2023-02-02T07:44:05.591Z,10.40
2023-02-02T07:46:36.176Z,10.20
2023-02-02T07:49:06.540Z,10.40
2023-02-02T07:51:37.959Z,9.00
2023-02-02T07:54:07.388Z,10.50
2023-02-02T07:56:37.595Z,9.60
2023-02-02T07:59:06.497Z,8.20
2023-02-02T08:01:35.311Z,10.20
2023-02-02T08:04:04.698Z,10.40
2023-02-02T08:06:36.048Z,9.90
2023-02-02T08:09:07.809Z,10.30
2023-02-02T08:11:37.313Z,9.60
2023-02-02T08:14:06.406Z,10.90
2023-02-02T08:16:35.360Z,10.50
2023-02-02T08:19:04.078Z,10.40
2023-02-02T08:21:34.309Z,9.80
2023-02-02T08:24:05.299Z,11.40
2023-02-02T08:26:35.441Z,10.50
2023-02-02T08:29:06.335Z,10.80
2023-02-02T08:31:41.844Z,9.90
2023-02-02T08:34:11.306Z,11.50
2023-02-02T08:36:40.127Z,11.50
2023-02-02T08:41:40.892Z,9.50
2023-02-02T08:44:11.620Z,10.30
2023-02-02T08:46:41.141Z,11.60
2023-02-02T08:49:11.683Z,10.70
2023-02-02T08:51:41.199Z,10.80
2023-02-02T08:54:09.745Z,10.70
2023-02-02T08:56:38.961Z,10.30
2023-02-02T08:59:07.938Z,9.10
2023-02-02T09:01:36.949Z,9.50
2023-02-02T09:04:07.582Z,9.30
2023-02-02T09:06:40.652Z,9.90
2023-02-02T09:09:13.216Z,9.00
2023-02-02T09:11:42.703Z,9.10
2023-02-02T09:14:13.722Z,9.50
2023-02-02T09:16:42.606Z,9.10
2023-02-02T09:19:11.758Z,8.70
2023-02-02T09:21:40.726Z,9.90
2023-02-02T09:24:10.973Z,8.50
2023-02-02T09:26:40.626Z,9.50
2023-02-02T09:29:12.338Z,10.20
2023-02-02T09:34:11.418Z,10.10
2023-02-02T09:36:40.353Z,9.10
2023-02-02T09:39:10.169Z,7.80
2023-02-02T09:41:39.005Z,9.20
2023-02-02T09:44:28.921Z,8.60
2023-02-02T09:47:10.104Z,8.40
2023-02-02T09:49:57.777Z,9.00
2023-02-02T09:52:27.795Z,9.80
2023-02-02T09:55:23.495Z,10.10
2023-02-02T09:57:54.409Z,9.60
2023-02-02T10:00:34.035Z,9.20
2023-02-02T10:03:07.616Z,8.20
2023-02-02T10:06:18.528Z,9.40
2023-02-02T10:08:50.520Z,9.30
2023-02-02T10:11:18.897Z,9.50
2023-02-02T10:13:49.121Z,9.80
2023-02-02T10:16:18.215Z,8.50
2023-02-02T10:18:56.013Z,9.80
2023-02-02T10:21:44.341Z,8.00
2023-02-02T10:24:26.571Z,7.90
2023-02-02T10:27:04.560Z,8.60
2023-02-02T10:29:48.380Z,9.10
2023-02-02T10:32:26.183Z,9.00
2023-02-02T10:35:16.569Z,9.20
2023-02-02T10:37:57.135Z,8.60
2023-02-02T10:40:38.775Z,8.70
2023-02-02T10:43:44.719Z,8.90
2023-02-02T10:46:17.940Z,9.10
2023-02-02T10:48:47.441Z,8.90
2023-02-02T10:51:26.295Z,9.20
2023-02-02T10:53:59.071Z,14.50
2023-02-02T10:56:36.582Z,11.50
2023-02-02T10:59:07.482Z,9.90
2023-02-02T11:04:41.442Z,9.40
2023-02-02T11:07:11.106Z,9.50
2023-02-02T11:09:40.834Z,8.90
2023-02-02T11:12:31.513Z,9.20
2023-02-02T11:15:05.259Z,8.90
2023-02-02T11:17:35.510Z,8.20
2023-02-02T11:20:21.940Z,8.00
2023-02-02T11:22:50.522Z,7.90
2023-02-02T11:25:33.967Z,9.80
2023-02-02T11:28:11.805Z,8.70
2023-02-02T11:30:40.240Z,7.10
2023-02-02T11:33:28.614Z,8.20
2023-02-02T11:36:01.546Z,7.20
2023-02-02T11:38:31.060Z,7.10
2023-02-02T11:41:04.469Z,6.70
2023-02-02T11:43:41.691Z,6.60
2023-02-02T11:46:28.798Z,7.10
2023-02-02T11:49:12.964Z,7.20
2023-02-02T11:51:41.378Z,7.10
2023-02-02T11:54:22.557Z,7.40
2023-02-02T11:56:52.585Z,7.60
2023-02-02T12:00:06.960Z,7.90
2023-02-02T12:02:35.975Z,7.00
2023-02-02T12:05:11.058Z,7.70
2023-02-02T12:07:39.638Z,8.00
2023-02-02T12:12:56.382Z,8.10
2023-02-02T12:15:58.144Z,6.80
2023-02-02T12:18:41.372Z,7.50
2023-02-02T12:21:25.050Z,7.60
2023-02-02T12:23:55.353Z,8.30
2023-02-02T12:26:28.442Z,7.20
2023-02-02T12:29:00.682Z,7.40
2023-02-02T12:32:11.444Z,6.60
2023-02-02T12:34:55.078Z,7.50
2023-02-02T12:37:47.025Z,8.60
2023-02-02T12:40:25.047Z,9.20
2023-02-02T12:43:12.646Z,8.90
2023-02-02T12:45:41.295Z,10.50
2023-02-02T12:48:23.842Z,10.70
2023-02-02T12:51:30.274Z,11.30
2023-02-02T12:54:34.922Z,10.30
2023-02-02T12:57:42.745Z,10.10
2023-02-02T13:00:27.053Z,10.70
2023-02-02T13:03:05.824Z,9.40
2023-02-02T13:05:55.976Z,10.00
2023-02-02T13:08:41.902Z,8.90
2023-02-02T13:11:30.171Z,9.90
2023-02-02T13:14:11.959Z,10.00
2023-02-02T13:16:44.499Z,9.40
2023-02-02T13:19:35.544Z,10.60
2023-02-02T13:22:05.168Z,10.60
2023-02-02T13:24:36.440Z,10.10
2023-02-02T13:27:06.308Z,8.80
2023-02-02T13:29:47.716Z,9.50
2023-02-02T13:32:36.491Z,8.90
2023-02-02T13:35:18.447Z,10.00
2023-02-02T13:37:49.983Z,10.00
2023-02-02T13:40:44.797Z,10.90
2023-02-02T13:43:35.933Z,9.50
2023-02-02T13:46:25.439Z,9.40
2023-02-02T13:48:56.520Z,10.10
2023-02-02T13:52:16.097Z,9.90
2023-02-02T13:55:09.766Z,9.60
2023-02-02T13:57:54.408Z,10.20
2023-02-02T14:00:31.045Z,11.30
2023-02-02T14:03:03.424Z,10.60
2023-02-02T14:05:37.039Z,11.10
2023-02-02T14:08:12.010Z,12.10
2023-02-02T14:14:00.491Z,9.70
2023-02-02T14:16:32.011Z,12.40
2023-02-02T14:21:32.878Z,12.40
2023-02-02T14:26:50.149Z,12.50
2023-02-02T14:29:35.040Z,12.60
2023-02-02T14:32:07.160Z,12.90
2023-02-02T14:34:42.246Z,14.00
2023-02-02T14:37:22.929Z,24.60
2023-02-02T14:40:12.735Z,28.70
2023-02-02T14:43:24.973Z,33.40
2023-02-02T14:46:15.922Z,21.60
2023-02-02T14:48:47.616Z,17.00
2023-02-02T14:53:49.667Z,18.10
2023-02-02T14:56:18.220Z,20.60
2023-02-02T14:58:53.431Z,21.20
2023-02-02T15:01:27.747Z,20.90
2023-02-02T15:04:15.973Z,18.70
2023-02-02T15:06:44.347Z,18.60
2023-02-02T15:09:27.965Z,17.00
2023-02-02T15:12:02.137Z,19.60
2023-02-02T15:14:33.890Z,19.90
2023-02-02T15:17:41.596Z,21.00
2023-02-02T15:20:21.198Z,19.80
2023-02-02T15:22:56.398Z,16.10
2023-02-02T15:26:03.641Z,16.90
2023-02-02T15:28:44.861Z,14.00
2023-02-02T15:31:28.691Z,13.80
2023-02-02T15:33:59.712Z,11.50
2023-02-02T15:36:31.321Z,12.40
2023-02-02T15:39:08.786Z,11.40
2023-02-02T15:41:38.271Z,10.80
2023-02-02T15:44:26.830Z,9.80
2023-02-02T15:46:56.754Z,9.30
2023-02-02T15:49:34.918Z,9.00
2023-02-02T15:52:11.867Z,9.20
2023-02-02T15:54:53.423Z,8.30
2023-02-02T15:57:37.993Z,8.70
2023-02-02T16:00:26.754Z,7.80
2023-02-02T16:03:01.196Z,8.00
2023-02-02T16:05:29.841Z,8.90
2023-02-02T16:08:06.075Z,9.70
2023-02-02T16:10:34.921Z,9.90
2023-02-02T16:13:03.858Z,9.70
2023-02-02T16:15:33.493Z,10.10
2023-02-02T16:18:11.947Z,10.10
2023-02-02T16:20:40.357Z,11.70
2023-02-02T16:23:14.009Z,11.70
2023-02-02T16:25:47.668Z,12.00
2023-02-02T16:28:17.986Z,12.00
2023-02-02T16:30:47.035Z,10.10
2023-02-02T16:33:35.929Z,10.30
2023-02-02T16:36:26.689Z,9.70
2023-02-02T16:38:58.169Z,10.20
2023-02-02T16:41:37.212Z,12.60
2023-02-02T16:44:40.119Z,11.50
2023-02-02T16:47:16.867Z,11.60
2023-02-02T16:49:45.335Z,12.70
2023-02-02T16:52:16.274Z,11.40
2023-02-02T16:55:11.189Z,12.50
2023-02-02T16:57:39.843Z,10.80
2023-02-02T17:00:18.440Z,12.30
2023-02-02T17:02:48.675Z,12.50
2023-02-02T17:05:29.454Z,11.40
2023-02-02T17:08:00.838Z,10.80
2023-02-02T17:10:42.576Z,12.90
2023-02-02T17:13:35.050Z,12.20
2023-02-02T17:16:13.337Z,10.50
2023-02-02T17:18:42.138Z,10.50
2023-02-02T17:21:14.418Z,10.40
2023-02-02T17:23:43.271Z,9.20
2023-02-02T17:26:12.479Z,11.00
2023-02-02T17:28:41.541Z,10.40
2023-02-02T17:31:12.398Z,13.50
2023-02-02T17:33:41.257Z,10.90
2023-02-02T17:36:10.886Z,10.70
2023-02-02T17:38:39.899Z,10.90
2023-02-02T17:41:10.432Z,13.70
2023-02-02T17:43:43.053Z,13.90
2023-02-02T17:46:14.378Z,17.00
2023-02-02T17:48:44.535Z,17.40
2023-02-02T17:51:15.330Z,17.90
2023-02-02T17:53:44.738Z,18.70
2023-02-02T17:56:13.396Z,25.20
2023-02-02T17:58:42.284Z,24.80
2023-02-02T18:01:11.864Z,18.40
2023-02-02T18:03:41.316Z,16.10
2023-02-02T18:06:10.525Z,16.10
2023-02-02T18:08:39.465Z,18.50
2023-02-02T18:11:13.173Z,15.80
2023-02-02T18:13:43.170Z,15.30
2023-02-02T18:16:12.328Z,15.40
2023-02-02T18:18:40.974Z,16.10
2023-02-02T18:21:10.479Z,16.30
2023-02-02T18:23:38.810Z,15.80
2023-02-02T18:26:14.534Z,17.60
2023-02-02T18:28:43.047Z,16.10
2023-02-02T18:31:12.773Z,17.10
2023-02-02T18:33:41.991Z,18.80
2023-02-02T18:36:20.061Z,20.20
2023-02-02T18:38:51.244Z,18.10
2023-02-02T18:41:21.818Z,17.50
2023-02-02T18:43:53.370Z,15.80
2023-02-02T18:48:50.767Z,16.80
2023-02-02T18:51:22.218Z,18.50
2023-02-02T18:53:50.850Z,16.50
2023-02-02T18:56:19.551Z,15.50
2023-02-02T18:58:48.409Z,16.30
2023-02-02T19:01:18.493Z,17.30
2023-02-02T19:03:48.486Z,15.90
2023-02-02T19:06:36.502Z,14.90
2023-02-02T19:09:06.193Z,15.50
2023-02-02T19:11:39.431Z,14.30
2023-02-02T19:14:20.046Z,18.10
2023-02-02T19:16:48.650Z,15.20
2023-02-02T19:19:20.629Z,15.30
2023-02-02T19:21:49.340Z,17.00
2023-02-02T19:24:17.780Z,17.10
2023-02-02T19:26:47.484Z,17.40
2023-02-02T19:29:23.697Z,17.00
2023-02-02T19:31:54.186Z,15.50
2023-02-02T19:34:23.309Z,15.10
2023-02-02T19:36:52.457Z,16.40
2023-02-02T19:39:34.119Z,17.20
2023-02-02T19:42:02.690Z,15.80
2023-02-02T19:44:34.391Z,16.20
2023-02-02T19:47:24.516Z,16.20
2023-02-02T19:49:53.580Z,16.30
2023-02-02T19:52:24.776Z,15.90
2023-02-02T19:54:53.518Z,17.80
2023-02-02T19:57:37.007Z,18.30
2023-02-02T20:00:27.472Z,15.20
2023-02-02T20:03:23.107Z,15.10
2023-02-02T20:05:52.276Z,16.40
2023-02-02T20:08:31.962Z,16.40
2023-02-02T20:11:01.436Z,16.00
2023-02-02T20:13:35.838Z,16.90
2023-02-02T20:16:05.314Z,15.70
2023-02-02T20:18:42.982Z,17.20
2023-02-02T20:21:38.166Z,14.50
2023-02-02T20:24:37.464Z,17.50
2023-02-02T20:27:18.653Z,17.50
2023-02-02T20:29:48.748Z,15.70
2023-02-02T20:32:44.247Z,17.40
2023-02-02T20:35:23.536Z,15.70
2023-02-02T20:37:52.378Z,14.30
2023-02-02T20:40:20.963Z,15.40
2023-02-02T20:42:49.928Z,15.20
2023-02-02T20:45:21.930Z,16.30
2023-02-02T20:47:51.019Z,15.80
2023-02-02T20:50:20.939Z,14.60
2023-02-02T20:52:51.277Z,15.00
2023-02-02T20:55:19.927Z,14.40
2023-02-02T20:57:52.607Z,14.70
2023-02-02T21:00:27.540Z,15.70
2023-02-02T21:02:57.257Z,16.80
2023-02-02T21:05:26.299Z,15.10
2023-02-02T21:07:56.938Z,16.50
2023-02-02T21:10:26.446Z,14.90
2023-02-02T21:12:56.078Z,17.50
2023-02-02T21:15:26.623Z,21.10
2023-02-02T21:17:56.088Z,20.00
2023-02-02T21:20:25.428Z,17.30
2023-02-02T21:22:56.364Z,19.20
2023-02-02T21:25:25.275Z,16.00
2023-02-02T21:28:00.426Z,14.10
2023-02-02T21:30:29.568Z,15.10
2023-02-02T21:32:58.738Z,14.90
2023-02-02T21:35:27.269Z,14.90
2023-02-02T21:37:57.993Z,15.40
2023-02-02T21:40:30.400Z,14.90
2023-02-02T21:42:59.999Z,15.80
2023-02-02T21:45:36.874Z,15.90
2023-02-02T21:48:35.411Z,15.50
2023-02-02T21:51:27.689Z,14.90
2023-02-02T21:53:56.274Z,16.20
2023-02-02T21:56:34.178Z,16.20
2023-02-02T21:59:17.468Z,15.00
2023-02-02T22:01:54.589Z,15.80
2023-02-02T22:04:28.561Z,16.50
2023-02-02T22:07:01.660Z,15.10
2023-02-02T22:09:38.450Z,15.50
2023-02-02T22:12:21.048Z,14.30
2023-02-02T22:14:51.167Z,16.40
2023-02-02T22:17:49.521Z,17.00
2023-02-02T22:20:33.250Z,15.20
2023-02-02T22:23:02.585Z,14.30
2023-02-02T22:25:36.303Z,16.50
2023-02-02T22:28:23.041Z,14.70
2023-02-02T22:30:52.704Z,15.10
2023-02-02T22:33:21.818Z,13.60
2023-02-02T22:35:50.256Z,13.80
2023-02-02T22:38:20.580Z,15.20
2023-02-02T22:40:50.129Z,14.10
2023-02-02T22:43:19.338Z,13.80
2023-02-02T22:45:47.871Z,15.90
2023-02-02T22:48:17.109Z,13.40
2023-02-02T22:50:46.060Z,12.80
2023-02-02T22:53:15.684Z,13.00
2023-02-02T22:55:44.502Z,13.40
2023-02-02T22:58:13.068Z,12.80
2023-02-02T23:00:41.930Z,12.40
2023-02-02T23:03:11.039Z,13.00
2023-02-02T23:05:39.919Z,13.30
2023-02-02T23:08:08.262Z,12.50
2023-02-02T23:10:56.501Z,11.20
2023-02-02T23:13:24.967Z,10.40
2023-02-02T23:15:53.547Z,10.30
2023-02-02T23:18:22.400Z,11.10
2023-02-02T23:20:50.802Z,9.80
2023-02-02T23:23:19.258Z,9.80
2023-02-02T23:25:47.911Z,11.30
2023-02-02T23:28:16.551Z,10.90
2023-02-02T23:30:45.083Z,9.50
2023-02-02T23:33:13.491Z,11.50
2023-02-02T23:35:42.181Z,12.20
2023-02-02T23:38:10.974Z,11.10
2023-02-02T23:40:39.365Z,11.50
2023-02-02T23:43:07.729Z,10.00
2023-02-02T23:45:36.728Z,11.20
2023-02-02T23:48:06.249Z,11.70
2023-02-02T23:50:37.842Z,10.60
2023-02-02T23:53:06.967Z,10.40
2023-02-02T23:55:37.300Z,10.70
2023-02-02T23:58:06.293Z,10.60
